createdAt,value
2023-03-13T09:00:43.761Z,59.48
2023-03-13T09:03:10.681Z,59.61
2023-03-13T09:05:54.601Z,59.58
2023-03-13T09:08:22.579Z,59.60
2023-03-13T09:10:58.542Z,59.82
2023-03-13T09:13:27.532Z,59.53
2023-03-13T09:16:02.316Z,59.89
2023-03-13T09:18:30.348Z,59.91
2023-03-13T09:20:57.694Z,60.18
2023-03-13T09:23:25.111Z,60.32
2023-03-13T09:25:57.225Z,60.51
2023-03-13T09:28:26.017Z,61.08
2023-03-13T09:30:54.231Z,60.90
2023-03-13T09:33:25.492Z,61.41
2023-03-13T09:35:52.441Z,61.62
2023-03-13T09:38:21.627Z,61.44
2023-03-13T09:41:05.319Z,61.18
2023-03-13T09:43:51.627Z,61.25
2023-03-13T09:46:54.172Z,61.37
2023-03-13T09:49:35.286Z,62.36
2023-03-13T09:52:19.308Z,61.85
2023-03-13T09:55:25.130Z,61.82
2023-03-13T09:57:56.088Z,62.70
2023-03-13T10:00:28.953Z,63.09
2023-03-13T10:03:03.688Z,62.66
2023-03-13T10:05:32.172Z,62.81
2023-03-13T10:08:15.699Z,62.83
2023-03-13T10:10:58.876Z,62.44
2023-03-13T10:13:38.162Z,63.45
2023-03-13T10:16:09.741Z,63.79
2023-03-13T10:18:37.782Z,63.77
2023-03-13T10:21:20.407Z,62.94
2023-03-13T10:24:02.293Z,63.66
2023-03-13T10:26:34.352Z,63.71
2023-03-13T10:29:21.725Z,64.22
2023-03-13T10:32:11.290Z,63.31
2023-03-13T10:34:55.792Z,63.88
2023-03-13T10:37:24.991Z,64.13
2023-03-13T10:39:52.906Z,64.10
2023-03-13T10:42:35.780Z,64.13
2023-03-13T10:45:05.485Z,63.72
2023-03-13T10:47:36.314Z,64.13
2023-03-13T10:50:04.694Z,64.14
2023-03-13T10:52:35.856Z,64.11
2023-03-13T10:55:06.852Z,64.17
2023-03-13T10:57:37.785Z,63.86
2023-03-13T11:00:28.232Z,64.20
2023-03-13T11:02:55.825Z,64.05
2023-03-13T11:05:26.207Z,64.36
2023-03-13T11:07:54.020Z,64.35
2023-03-13T11:10:26.281Z,64.52
2023-03-13T11:12:55.444Z,64.31
2023-03-13T11:15:52.075Z,64.63
2023-03-13T11:18:29.930Z,64.34
2023-03-13T11:21:15.708Z,64.34
2023-03-13T11:23:54.546Z,64.31
2023-03-13T11:26:32.165Z,64.21
2023-03-13T11:29:11.442Z,64.29
2023-03-13T11:31:51.840Z,64.45
2023-03-13T11:34:28.155Z,64.07
2023-03-13T11:37:05.925Z,63.62
2023-03-13T11:39:47.928Z,64.52
2023-03-13T11:42:55.922Z,64.40
2023-03-13T11:45:49.256Z,63.94
2023-03-13T11:48:22.044Z,64.04
2023-03-13T11:51:03.017Z,63.86
2023-03-13T11:53:42.037Z,63.95
2023-03-13T11:56:21.931Z,64.11
2023-03-13T11:59:08.420Z,63.73
2023-03-13T12:01:46.656Z,63.84
2023-03-13T12:04:28.862Z,63.91
2023-03-13T12:07:06.473Z,63.84
2023-03-13T12:09:42.123Z,64.10
2023-03-13T12:12:38.954Z,64.27
2023-03-13T12:15:19.209Z,63.79
2023-03-13T12:17:58.602Z,64.53
2023-03-13T12:20:34.662Z,63.46
2023-03-13T12:23:19.687Z,63.77
2023-03-13T12:25:56.605Z,63.92
2023-03-13T12:29:02.128Z,63.60
2023-03-13T12:31:34.467Z,63.54
2023-03-13T12:34:17.694Z,63.50
2023-03-13T12:36:51.318Z,63.71
2023-03-13T12:39:22.813Z,63.46
2023-03-13T12:42:07.714Z,63.42
2023-03-13T12:44:35.077Z,63.00
2023-03-13T12:47:33.914Z,62.71
2023-03-13T12:50:22.491Z,62.53
2023-03-13T12:53:28.633Z,63.08
2023-03-13T12:56:08.029Z,62.44
2023-03-13T12:58:51.035Z,62.42
2023-03-13T13:01:42.223Z,62.72
2023-03-13T13:04:15.637Z,62.54
2023-03-13T13:07:18.342Z,62.50
2023-03-13T13:10:02.485Z,63.20
2023-03-13T13:12:30.949Z,63.01
2023-03-13T13:15:04.164Z,62.94
2023-03-13T13:17:40.735Z,62.73
2023-03-13T13:20:30.624Z,63.19
2023-03-13T13:23:16.242Z,62.57
2023-03-13T13:25:43.225Z,62.22
2023-03-13T13:28:21.937Z,62.78
2023-03-13T13:30:50.458Z,62.74
2023-03-13T13:33:20.440Z,62.47
2023-03-13T13:36:08.231Z,62.94
2023-03-13T13:38:44.396Z,62.38
2023-03-13T13:41:11.400Z,63.13
2023-03-13T13:43:40.578Z,63.12
2023-03-13T13:46:31.476Z,63.28
2023-03-13T13:49:10.208Z,63.07
2023-03-13T13:51:41.150Z,62.35
2023-03-13T13:54:32.402Z,62.47
2023-03-13T13:57:02.635Z,63.07
2023-03-13T13:59:44.308Z,62.75
2023-03-13T14:02:20.122Z,62.41
2023-03-13T14:05:02.958Z,62.35
2023-03-13T14:07:48.449Z,62.64
2023-03-13T14:10:15.329Z,62.57
2023-03-13T14:12:47.773Z,62.30
2023-03-13T14:15:19.369Z,62.94
2023-03-13T14:17:50.138Z,62.50
2023-03-13T14:20:31.432Z,62.23
2023-03-13T14:23:01.876Z,62.63
2023-03-13T14:25:47.893Z,61.92
2023-03-13T14:28:23.816Z,62.01
2023-03-13T14:30:54.066Z,62.58
2023-03-13T14:33:21.359Z,62.39
2023-03-13T14:35:48.909Z,62.03
2023-03-13T14:38:26.049Z,62.52
2023-03-13T14:40:55.567Z,62.19
2023-03-13T14:43:33.873Z,62.51
2023-03-13T14:46:12.758Z,62.13
2023-03-13T14:48:39.868Z,62.12
2023-03-13T14:51:16.091Z,62.62
2023-03-13T14:54:03.012Z,62.99
2023-03-13T14:56:48.223Z,62.57
2023-03-13T14:59:18.336Z,62.73
2023-03-13T15:01:46.676Z,62.74
2023-03-13T15:04:13.740Z,63.18
2023-03-13T15:06:41.055Z,62.74
2023-03-13T15:09:16.436Z,63.32
2023-03-13T15:11:54.864Z,63.15
2023-03-13T15:14:38.181Z,63.08
2023-03-13T15:17:22.277Z,63.31
2023-03-13T15:19:54.490Z,63.26
2023-03-13T15:22:28.844Z,63.36
2023-03-13T15:25:05.986Z,63.40
2023-03-13T15:27:34.258Z,63.69
2023-03-13T15:30:01.140Z,63.65
2023-03-13T15:32:29.925Z,64.06
2023-03-13T15:34:58.558Z,63.78
2023-03-13T15:37:26.717Z,64.62
2023-03-13T15:39:54.058Z,64.50
2023-03-13T15:42:21.637Z,64.66
2023-03-13T15:44:48.506Z,65.22
2023-03-13T15:47:19.862Z,65.06
2023-03-13T15:49:47.095Z,65.40
2023-03-13T15:52:19.642Z,66.22
2023-03-13T15:54:46.988Z,66.14
2023-03-13T15:57:24.088Z,66.37
2023-03-13T15:59:52.170Z,66.55
2023-03-13T16:02:24.074Z,66.67
2023-03-13T16:04:51.913Z,66.70
2023-03-13T16:07:21.051Z,66.93
2023-03-13T16:09:48.514Z,67.16
2023-03-13T16:12:15.553Z,67.12
2023-03-13T16:14:42.593Z,67.39
2023-03-13T16:17:20.843Z,67.62
2023-03-13T16:19:48.250Z,67.72
2023-03-13T16:22:15.340Z,67.95
2023-03-13T16:24:42.445Z,67.95
2023-03-13T16:27:17.566Z,67.73
2023-03-13T16:29:45.518Z,68.16
2023-03-13T16:32:17.265Z,68.52
2023-03-13T16:34:44.390Z,68.19
2023-03-13T16:37:13.452Z,67.88
2023-03-13T16:39:40.580Z,68.57
2023-03-13T16:42:08.375Z,68.59
2023-03-13T16:44:35.377Z,68.63
2023-03-13T16:47:06.713Z,68.66
2023-03-13T16:49:33.866Z,68.66
2023-03-13T16:52:00.915Z,68.77
2023-03-13T16:54:27.796Z,68.87
2023-03-13T16:56:54.919Z,68.88
2023-03-13T16:59:23.435Z,68.88
2023-03-13T17:01:50.381Z,68.82
2023-03-13T17:04:17.480Z,68.53
2023-03-13T17:06:48.034Z,68.96
2023-03-13T17:09:17.859Z,68.61
2023-03-13T17:11:45.513Z,68.82
2023-03-13T17:14:13.676Z,68.62
2023-03-13T17:16:45.526Z,68.88
2023-03-13T17:19:17.101Z,68.54
2023-03-13T17:21:44.262Z,68.57
2023-03-13T17:24:11.386Z,68.61
2023-03-13T17:26:39.878Z,68.74
2023-03-13T17:29:12.789Z,68.60
2023-03-13T17:31:41.050Z,68.51
2023-03-13T17:34:08.762Z,68.70
2023-03-13T17:36:36.446Z,68.14
2023-03-13T17:39:06.031Z,68.46
2023-03-13T17:41:35.218Z,68.05
2023-03-13T17:44:03.908Z,68.42
2023-03-13T17:46:37.091Z,68.33
2023-03-13T17:49:04.206Z,68.41
2023-03-13T17:51:33.042Z,68.42
2023-03-13T17:54:01.002Z,68.44
2023-03-13T17:56:36.352Z,68.01
2023-03-13T17:59:04.502Z,68.39
2023-03-13T18:01:34.319Z,68.69
2023-03-13T18:04:01.704Z,68.68
2023-03-13T18:06:31.309Z,68.82
2023-03-13T18:09:07.916Z,68.83
2023-03-13T18:11:37.431Z,68.93
2023-03-13T18:14:06.128Z,69.01
2023-03-13T18:16:43.335Z,69.07
2023-03-13T18:19:22.727Z,69.49
2023-03-13T18:21:52.066Z,69.61
2023-03-13T18:24:19.530Z,68.97
2023-03-13T18:26:47.958Z,69.42
2023-03-13T18:29:19.429Z,69.29
2023-03-13T18:31:48.103Z,69.56
2023-03-13T18:34:15.278Z,69.48
2023-03-13T18:36:42.368Z,69.46
2023-03-13T18:39:14.729Z,69.48
2023-03-13T18:41:41.611Z,69.66
2023-03-13T18:44:08.526Z,70.10
2023-03-13T18:46:35.561Z,69.82
2023-03-13T18:49:02.734Z,69.68
2023-03-13T18:51:31.036Z,70.29
2023-03-13T18:53:58.229Z,69.98
2023-03-13T18:56:28.678Z,70.18
2023-03-13T18:58:56.283Z,70.26
2023-03-13T19:01:26.526Z,69.88
2023-03-13T19:03:53.981Z,69.82
2023-03-13T19:06:28.172Z,70.22
2023-03-13T19:08:58.236Z,70.19
2023-03-13T19:11:27.746Z,70.45
2023-03-13T19:13:55.496Z,70.90
2023-03-13T19:16:25.934Z,70.95
2023-03-13T19:18:53.212Z,70.78
2023-03-13T19:21:25.853Z,70.34
2023-03-13T19:23:53.902Z,70.53
2023-03-13T19:26:44.507Z,70.34
2023-03-13T19:29:17.806Z,70.51
2023-03-13T19:31:45.383Z,70.65
2023-03-13T19:34:12.473Z,71.08
2023-03-13T19:36:44.912Z,70.61
2023-03-13T19:39:20.309Z,70.67
2023-03-13T19:41:48.440Z,70.87
2023-03-13T19:44:17.181Z,70.67
2023-03-13T19:46:45.013Z,71.38
2023-03-13T19:49:20.625Z,71.10
2023-03-13T19:51:48.387Z,71.30
2023-03-13T19:54:15.971Z,71.35
2023-03-13T19:56:45.959Z,71.54
2023-03-13T19:59:23.410Z,71.15
2023-03-13T20:01:50.651Z,70.92
2023-03-13T20:04:17.875Z,71.60
2023-03-13T20:06:45.730Z,71.22
2023-03-13T20:09:15.484Z,71.16
2023-03-13T20:11:43.011Z,71.21
2023-03-13T20:14:10.545Z,71.81
2023-03-13T20:16:38.099Z,71.54
2023-03-13T20:19:06.186Z,71.81
2023-03-13T20:21:36.283Z,71.90
2023-03-13T20:24:03.383Z,71.66
2023-03-13T20:26:30.500Z,71.95
2023-03-13T20:28:57.791Z,71.54
2023-03-13T20:31:28.486Z,71.60
2023-03-13T20:33:56.800Z,72.05
2023-03-13T20:36:24.446Z,72.08
2023-03-13T20:38:51.881Z,72.11
2023-03-13T20:41:24.643Z,72.18
2023-03-13T20:43:53.453Z,71.94
2023-03-13T20:46:21.059Z,72.38
2023-03-13T20:48:48.742Z,71.84
2023-03-13T20:51:16.253Z,72.46
2023-03-13T20:53:43.775Z,72.33
2023-03-13T20:56:11.792Z,72.53
2023-03-13T20:58:39.362Z,72.41
2023-03-13T21:01:07.473Z,72.13
2023-03-13T21:03:36.043Z,72.54
2023-03-13T21:06:10.833Z,72.16
2023-03-13T21:08:38.915Z,72.27
2023-03-13T21:11:40.770Z,72.66
2023-03-13T21:14:27.706Z,72.20
2023-03-13T21:17:14.691Z,72.69
2023-03-13T21:20:01.630Z,72.53
2023-03-13T21:22:48.575Z,72.44
2023-03-13T21:25:35.816Z,72.40
2023-03-13T21:28:22.860Z,72.42
2023-03-13T21:31:09.959Z,72.85
2023-03-13T21:33:57.664Z,72.95
2023-03-13T21:36:44.626Z,73.02
2023-03-13T21:39:31.560Z,72.52
2023-03-13T21:42:18.438Z,73.28
2023-03-13T21:45:05.898Z,73.03
2023-03-13T21:47:52.905Z,72.66
2023-03-13T21:50:40.143Z,72.80
2023-03-13T21:53:27.054Z,73.01
2023-03-13T21:56:14.505Z,72.73
2023-03-13T21:59:01.875Z,73.04
2023-03-13T22:01:48.796Z,72.72
2023-03-13T22:04:35.610Z,73.32
2023-03-13T22:07:22.724Z,72.74
2023-03-13T22:10:09.582Z,73.12
2023-03-13T22:12:56.639Z,72.86
2023-03-13T22:15:43.475Z,73.24
2023-03-13T22:18:30.547Z,73.10
2023-03-13T22:21:18.620Z,73.43
2023-03-13T22:24:07.011Z,73.35
2023-03-13T22:26:54.697Z,73.30
2023-03-13T22:29:41.622Z,73.19
2023-03-13T22:32:28.581Z,73.14
2023-03-13T22:35:15.654Z,73.61
2023-03-13T22:38:02.674Z,73.42
2023-03-13T22:40:49.701Z,73.44
2023-03-13T22:43:36.635Z,73.37
2023-03-13T22:46:23.733Z,73.41
2023-03-13T22:49:10.535Z,73.32
2023-03-13T22:51:57.485Z,73.72
2023-03-13T22:54:44.668Z,73.93
2023-03-13T22:57:31.858Z,73.31
2023-03-13T23:00:19.600Z,74.19
2023-03-13T23:03:07.368Z,73.49
2023-03-13T23:05:59.904Z,74.09
2023-03-13T23:08:47.188Z,74.03
2023-03-13T23:11:34.536Z,74.11
2023-03-13T23:14:21.989Z,73.63
2023-03-13T23:17:09.125Z,74.09
2023-03-13T23:19:56.218Z,74.15
2023-03-13T23:22:47.459Z,74.22
2023-03-13T23:25:34.812Z,73.61
2023-03-13T23:28:22.269Z,74.10
2023-03-13T23:31:09.275Z,74.46
2023-03-13T23:33:56.369Z,74.08
2023-03-13T23:36:43.323Z,74.24
2023-03-13T23:39:30.220Z,74.25
2023-03-13T23:42:17.469Z,74.00
2023-03-13T23:45:04.479Z,74.26
2023-03-13T23:47:51.667Z,74.39
2023-03-13T23:50:38.883Z,74.06
2023-03-13T23:53:25.936Z,74.59
2023-03-13T23:56:18.671Z,74.49
2023-03-13T23:59:05.753Z,74.02
